Fairbanks, AK

4:32 AM AKST on December 28, 2014 (GMT -0900)
Fairbanks International | Change Station
CLOSE
Current Station
Airport
Location: Fairbanks,
Elevation: 433 ft
Nearby Weather Stations

Elev 433 ft 64.80 °N, 147.88 °W | Updated 39 minutes ago

Partly Cloudy
Partly Cloudy
6 °F
Feels Like -6 °F
N
7
Wind Variable Wind from NE

Today
High -- | Low -- °F
--% Chance of Precip.
Yesterday
High -- | Low -- °F
Precip. -- in
10:57 AM 2:48 PM
Waxing Crescent, 48% visible
Pressure 30.58 in
Visibility 10.0 miles
Clouds Few 20000 ft
Windchill -6 °F
Dew Point -1 °F
Humidity 73%
Rainfall 0.00 in
Snow Depth Not available.
UV 0 out of 12
Pollen Not available.
Air Quality Not available.
Flu Activity Not available.
METAR PAFA 281253Z 05006KT 10SM FEW200 M14/M18 A3052 RMK AO2 SLP353 T11441183

More Conditions Fewer Conditions

Pressure 30.58 in
Visibility 10.0 miles
Clouds Few 20000 ft
Windchill -6 °F
Dew Point -1 °F
Humidity 73%
Rainfall 0.00 in
Snow Depth Not available.
UV 0 out of 12
Pollen Not available.
Air Quality Not available.
Flu Activity Not available.
METAR PAFA 281253Z 05006KT 10SM FEW200 M14/M18 A3052 RMK AO2 SLP353 T11441183

More Conditions Fewer Conditions

10-Day Weather Forecast

Almanac

Astronomy

Dec. 28, 2014 Rise Set
Actual Time
Civil Twilight
Nautical Twilight
Astronomical Twilight
Moon
Length of Visible Light
Length of Day
Tomorrow will be .
, % of the Moon is Illuminated

Today's Extremes

State Highs State Lows

Community

WunderPhotos

Upload Photos

1,781,263 photos uploaded!

WunderBlogs® & News

Nearby

Air Quality

  Air Quality AQ Index Pollutant
Not available.

Snow Depth

Station Depth Elevation

Earthquake Activity

City Distance Mag. Time & Date
Minimum magnitude displayed is 2.5.

Coastal Water Temperatures

Place Temperature

Nearby Weather Stations